KCBF

Council Bluffs Municipal Airport

Council Bluffs, Iowa, USA
METAR KCBF 151555Z AUTO 16005KT 10SM CLR M02/M04 A3018 RMK AO2
Observed Flight Rules
Dec-15 @ 15:55 UTC (16 minutes ago) Visual Flight Rules
Wind Visibility Clouds
160° at 5 knots 10 miles
  • Clear skies
Temperatures Readings
Current -2°C / 28°F
Dewpoint -4°C / 25°F
Humidity 86%
Altimeter 30.18" Hg
Pressure 1022 hPa
Elevation 382
METAR KCBF 151555Z AUTO 16005KT 10SM CLR M02/M04 A3018 RMK AO2
Observed Flight Rules
Dec-15 @ 15:55 UTC
(16 minutes ago)
VFR
Wind Visibility
160° at 5 knots 10 miles
Clouds
  • Clear skies
Temperature Dewpoint
-2°C / 28°F -4°C / 25°F
Humidity Altimeter Pressure
86% 30.18" Hg 1022 hPa